createdAt,value
2023-01-29T00:06:07.339Z,8.27
2023-01-29T00:13:25.994Z,8.13
2023-01-29T00:20:45.160Z,7.85
2023-01-29T00:28:04.751Z,6.88
2023-01-29T00:35:23.004Z,7.65
2023-01-29T00:42:58.808Z,8.65
2023-01-29T00:50:18.983Z,8.40
2023-01-29T00:57:38.213Z,7.85
2023-01-29T01:04:57.047Z,8.75
2023-01-29T01:12:20.139Z,7.75
2023-01-29T01:26:56.755Z,8.07
2023-01-29T01:34:16.790Z,9.05
2023-01-29T01:41:34.914Z,7.75
2023-01-29T01:48:57.081Z,7.75
2023-01-29T01:56:19.278Z,9.43
2023-01-29T02:04:00.443Z,8.67
2023-01-29T02:11:20.082Z,7.90
2023-01-29T02:18:39.561Z,8.27
2023-01-29T02:26:25.317Z,8.90
2023-01-29T02:33:52.371Z,8.30
2023-01-29T02:41:16.298Z,7.20
2023-01-29T02:48:42.556Z,7.63
2023-01-29T02:56:08.208Z,8.60
2023-01-29T03:03:30.018Z,7.47
2023-01-29T03:10:56.640Z,8.60
2023-01-29T03:18:19.767Z,7.72
2023-01-29T03:25:56.661Z,8.53
2023-01-29T03:33:22.889Z,8.20
2023-01-29T03:40:47.167Z,7.57
2023-01-29T03:48:09.562Z,8.02
2023-01-29T03:55:34.818Z,8.02
2023-01-29T04:02:59.085Z,7.85
2023-01-29T04:10:19.681Z,6.85
2023-01-29T04:17:41.844Z,6.80
2023-01-29T04:25:08.634Z,5.72
2023-01-29T04:32:32.324Z,5.50
2023-01-29T04:39:57.292Z,6.95
2023-01-29T04:47:22.294Z,6.55
2023-01-29T04:54:53.021Z,6.03
2023-01-29T05:02:12.117Z,6.20
2023-01-29T05:09:30.933Z,6.50
2023-01-29T05:16:53.662Z,5.82
2023-01-29T05:24:13.008Z,7.18
2023-01-29T05:31:31.273Z,7.57
2023-01-29T05:38:51.023Z,7.15
2023-01-29T05:46:09.789Z,7.53
2023-01-29T05:53:27.946Z,7.20
2023-01-29T06:00:47.981Z,6.75
2023-01-29T06:08:07.350Z,7.78
2023-01-29T06:15:26.753Z,7.15
2023-01-29T06:22:46.333Z,6.68
2023-01-29T06:30:04.912Z,8.00
2023-01-29T06:37:23.058Z,7.57
2023-01-29T06:44:42.873Z,7.50
2023-01-29T06:52:01.075Z,7.30
2023-01-29T06:59:19.311Z,7.20
2023-01-29T07:06:39.052Z,7.85
2023-01-29T07:13:57.346Z,7.20
2023-01-29T07:21:15.798Z,7.05
2023-01-29T07:28:39.084Z,7.25
2023-01-29T07:43:16.180Z,7.25
2023-01-29T07:50:39.061Z,8.27
2023-01-29T07:57:57.851Z,8.85
2023-01-29T08:05:16.076Z,8.55
2023-01-29T08:12:35.917Z,8.52
2023-01-29T08:19:54.193Z,7.60
2023-01-29T08:27:12.850Z,8.35
2023-01-29T08:34:32.410Z,9.00
2023-01-29T08:41:50.794Z,8.05
2023-01-29T08:49:09.938Z,7.68
2023-01-29T08:56:29.599Z,8.32
2023-01-29T09:03:47.753Z,8.80
2023-01-29T09:11:06.317Z,9.80
2023-01-29T09:18:26.615Z,9.32
2023-01-29T09:25:45.075Z,9.55
2023-01-29T09:33:03.226Z,8.68
2023-01-29T09:40:28.010Z,8.40
2023-01-29T09:47:46.348Z,8.77
2023-01-29T09:55:08.755Z,7.90
2023-01-29T10:02:51.214Z,8.65
2023-01-29T10:10:26.302Z,8.98
2023-01-29T10:18:09.521Z,8.32
2023-01-29T10:25:28.698Z,8.40
2023-01-29T10:32:47.373Z,9.77
2023-01-29T10:40:22.454Z,10.25
2023-01-29T10:48:19.056Z,8.52
2023-01-29T10:55:53.662Z,9.60
2023-01-29T11:03:27.316Z,9.32
2023-01-29T11:10:54.541Z,9.75
2023-01-29T11:18:15.939Z,9.00
2023-01-29T11:25:40.056Z,8.13
2023-01-29T11:33:20.428Z,8.90
2023-01-29T11:40:42.700Z,8.00
2023-01-29T11:48:01.751Z,8.77
2023-01-29T11:55:25.473Z,7.70
2023-01-29T12:02:45.580Z,9.23
2023-01-29T12:10:04.204Z,12.40
2023-01-29T12:17:26.460Z,10.15
2023-01-29T12:24:49.617Z,10.57
2023-01-29T12:32:13.796Z,9.25
2023-01-29T12:39:33.730Z,8.02
2023-01-29T12:46:54.593Z,7.68
2023-01-29T12:54:16.353Z,13.00
2023-01-29T13:01:39.086Z,7.05
2023-01-29T13:09:00.366Z,6.30
2023-01-29T13:16:23.032Z,7.22
2023-01-29T13:23:45.272Z,6.47
2023-01-29T13:31:15.989Z,6.68
2023-01-29T13:38:36.271Z,8.45
2023-01-29T13:45:56.827Z,6.15
2023-01-29T13:53:22.794Z,6.53
2023-01-29T14:01:01.526Z,7.38
2023-01-29T14:08:41.728Z,7.43
2023-01-29T14:16:29.613Z,7.65
2023-01-29T14:23:49.596Z,9.43
2023-01-29T14:31:08.785Z,8.90
2023-01-29T14:38:30.284Z,9.13
2023-01-29T14:45:49.924Z,9.00
2023-01-29T14:53:13.291Z,8.13
2023-01-29T15:08:02.140Z,10.23
2023-01-29T15:15:27.423Z,11.43
2023-01-29T15:22:47.636Z,11.07
2023-01-29T15:30:09.337Z,11.32
2023-01-29T15:37:29.327Z,12.35
2023-01-29T15:44:49.053Z,12.00
2023-01-29T15:52:10.408Z,12.73
2023-01-29T15:59:34.640Z,11.85
2023-01-29T16:06:55.033Z,8.70
2023-01-29T16:14:14.661Z,11.93
2023-01-29T16:21:34.638Z,12.18
2023-01-29T16:28:54.386Z,11.68
2023-01-29T16:36:17.321Z,11.05
2023-01-29T16:43:55.030Z,13.00
2023-01-29T16:51:16.109Z,11.73
2023-01-29T16:58:34.521Z,13.00
2023-01-29T17:05:54.486Z,13.50
2023-01-29T17:13:22.817Z,13.52
2023-01-29T17:20:41.225Z,12.38
2023-01-29T17:28:03.034Z,12.88
2023-01-29T17:35:21.546Z,12.38
2023-01-29T17:42:41.114Z,10.98
2023-01-29T17:50:01.577Z,12.73
2023-01-29T17:57:19.908Z,12.82
2023-01-29T18:04:38.657Z,10.20
2023-01-29T18:11:58.311Z,14.52
2023-01-29T18:19:21.309Z,9.32
2023-01-29T18:26:39.914Z,10.48
2023-01-29T18:33:59.581Z,10.55
2023-01-29T18:41:18.231Z,12.57
2023-01-29T18:48:36.707Z,13.93
2023-01-29T18:55:57.912Z,12.23
2023-01-29T19:03:17.385Z,12.15
2023-01-29T19:10:37.751Z,14.50
2023-01-29T19:17:57.649Z,12.70
2023-01-29T19:25:17.104Z,14.75
2023-01-29T19:32:35.904Z,14.70
2023-01-29T19:39:55.513Z,15.40
2023-01-29T19:47:14.416Z,15.38
2023-01-29T19:54:32.824Z,15.65
2023-01-29T20:01:52.624Z,14.45
2023-01-29T20:09:11.353Z,15.15
2023-01-29T20:16:30.035Z,13.85
2023-01-29T20:23:53.064Z,15.88
2023-01-29T20:31:11.783Z,15.43
2023-01-29T20:38:31.887Z,15.98
2023-01-29T20:45:51.753Z,18.30
2023-01-29T20:53:13.312Z,20.63
2023-01-29T21:00:32.017Z,21.83
2023-01-29T21:07:52.255Z,15.60
2023-01-29T21:15:11.697Z,18.90
2023-01-29T21:22:29.980Z,17.65
2023-01-29T21:29:49.958Z,17.83
2023-01-29T21:37:09.469Z,16.50
2023-01-29T21:44:27.758Z,15.02
2023-01-29T21:51:47.366Z,21.88
2023-01-29T21:59:05.948Z,13.38
2023-01-29T22:06:24.238Z,14.23
2023-01-29T22:13:44.192Z,14.45
2023-01-29T22:21:03.647Z,14.00
2023-01-29T22:28:22.374Z,12.77
2023-01-29T22:35:42.386Z,13.85
2023-01-29T22:43:00.627Z,13.00
2023-01-29T22:50:19.264Z,14.32
2023-01-29T22:57:40.297Z,14.40
2023-01-29T23:04:58.964Z,14.02
2023-01-29T23:12:17.473Z,9.90
2023-01-29T23:19:37.395Z,13.70
2023-01-29T23:27:13.213Z,13.40
2023-01-29T23:34:31.664Z,14.10
2023-01-29T23:41:51.527Z,11.80
2023-01-29T23:49:09.897Z,12.57
2023-01-29T23:56:28.428Z,12.55
